sensor_id;sensor_type;location;lat;lon;timestamp;P1;durP1;ratioP1;P2;durP2;ratioP2
57718;SDS011;43561;50.090;18.522;2024-03-02T00:04:47;160.30;;;73.22;;
57718;SDS011;43561;50.090;18.522;2024-03-02T00:14:49;141.25;;;75.28;;
57718;SDS011;43561;50.090;18.522;2024-03-02T00:24:52;157.07;;;83.53;;
57718;SDS011;43561;50.090;18.522;2024-03-02T00:34:54;127.15;;;69.13;;
57718;SDS011;43561;50.090;18.522;2024-03-02T00:44:56;119.55;;;66.50;;
57718;SDS011;43561;50.090;18.522;2024-03-02T00:55:01;119.50;;;65.30;;
57718;SDS011;43561;50.090;18.522;2024-03-02T01:05:04;148.80;;;79.45;;
57718;SDS011;43561;50.090;18.522;2024-03-02T01:25:50;137.05;;;63.65;;
57718;SDS011;43561;50.090;18.522;2024-03-02T01:35:53;133.52;;;70.03;;
57718;SDS011;43561;50.090;18.522;2024-03-02T01:45:55;126.35;;;69.85;;
57718;SDS011;43561;50.090;18.522;2024-03-02T01:55:58;141.40;;;69.15;;
57718;SDS011;43561;50.090;18.522;2024-03-02T02:06:00;122.45;;;66.68;;
57718;SDS011;43561;50.090;18.522;2024-03-02T02:16:14;125.20;;;66.63;;
57718;SDS011;43561;50.090;18.522;2024-03-02T02:26:16;134.77;;;76.75;;
57718;SDS011;43561;50.090;18.522;2024-03-02T02:36:18;109.13;;;62.55;;
57718;SDS011;43561;50.090;18.522;2024-03-02T02:46:20;119.70;;;65.93;;
57718;SDS011;43561;50.090;18.522;2024-03-02T02:56:22;148.13;;;69.70;;
57718;SDS011;43561;50.090;18.522;2024-03-02T03:06:34;132.93;;;69.75;;
57718;SDS011;43561;50.090;18.522;2024-03-02T03:16:41;105.25;;;62.65;;
57718;SDS011;43561;50.090;18.522;2024-03-02T03:27:02;112.30;;;68.50;;
57718;SDS011;43561;50.090;18.522;2024-03-02T03:37:05;130.07;;;69.05;;
57718;SDS011;43561;50.090;18.522;2024-03-02T03:47:08;119.22;;;66.15;;
57718;SDS011;43561;50.090;18.522;2024-03-02T03:57:10;113.68;;;62.90;;
57718;SDS011;43561;50.090;18.522;2024-03-02T04:07:14;126.20;;;72.43;;
57718;SDS011;43561;50.090;18.522;2024-03-02T04:17:16;127.18;;;67.50;;
57718;SDS011;43561;50.090;18.522;2024-03-02T04:27:18;135.68;;;74.72;;
57718;SDS011;43561;50.090;18.522;2024-03-02T04:37:22;136.45;;;74.63;;
57718;SDS011;43561;50.090;18.522;2024-03-02T04:47:24;152.93;;;83.32;;
57718;SDS011;43561;50.090;18.522;2024-03-02T04:57:28;137.43;;;75.50;;
57718;SDS011;43561;50.090;18.522;2024-03-02T05:07:35;111.60;;;62.08;;
57718;SDS011;43561;50.090;18.522;2024-03-02T05:17:41;153.73;;;86.47;;
57718;SDS011;43561;50.090;18.522;2024-03-02T05:28:05;125.07;;;78.78;;
57718;SDS011;43561;50.090;18.522;2024-03-02T05:38:07;132.90;;;78.22;;
57718;SDS011;43561;50.090;18.522;2024-03-02T05:48:31;130.18;;;74.15;;
57718;SDS011;43561;50.090;18.522;2024-03-02T05:58:46;134.23;;;81.82;;
57718;SDS011;43561;50.090;18.522;2024-03-02T06:19:06;133.45;;;76.13;;
57718;SDS011;43561;50.090;18.522;2024-03-02T06:29:27;135.05;;;75.90;;
57718;SDS011;43561;50.090;18.522;2024-03-02T06:39:29;131.23;;;72.47;;
57718;SDS011;43561;50.090;18.522;2024-03-02T06:49:31;119.97;;;62.22;;
57718;SDS011;43561;50.090;18.522;2024-03-02T06:59:33;113.13;;;61.42;;
57718;SDS011;43561;50.090;18.522;2024-03-02T07:09:35;116.40;;;61.58;;
57718;SDS011;43561;50.090;18.522;2024-03-02T07:19:38;133.75;;;69.90;;
57718;SDS011;43561;50.090;18.522;2024-03-02T07:29:43;133.57;;;78.60;;
57718;SDS011;43561;50.090;18.522;2024-03-02T07:39:45;121.03;;;63.55;;
57718;SDS011;43561;50.090;18.522;2024-03-02T07:49:47;115.85;;;70.07;;
57718;SDS011;43561;50.090;18.522;2024-03-02T07:59:49;132.43;;;72.80;;
57718;SDS011;43561;50.090;18.522;2024-03-02T08:09:51;139.23;;;78.20;;
57718;SDS011;43561;50.090;18.522;2024-03-02T08:19:53;135.40;;;71.50;;
57718;SDS011;43561;50.090;18.522;2024-03-02T08:29:56;143.50;;;84.68;;
57718;SDS011;43561;50.090;18.522;2024-03-02T08:39:57;146.02;;;85.28;;
57718;SDS011;43561;50.090;18.522;2024-03-02T08:50:00;132.55;;;80.00;;
57718;SDS011;43561;50.090;18.522;2024-03-02T09:00:03;145.55;;;85.45;;
57718;SDS011;43561;50.090;18.522;2024-03-02T09:10:06;130.25;;;77.75;;
57718;SDS011;43561;50.090;18.522;2024-03-02T09:20:13;135.82;;;84.68;;
57718;SDS011;43561;50.090;18.522;2024-03-02T09:30:15;140.55;;;78.05;;
57718;SDS011;43561;50.090;18.522;2024-03-02T09:40:26;134.38;;;81.50;;
57718;SDS011;43561;50.090;18.522;2024-03-02T09:50:28;133.63;;;72.68;;
57718;SDS011;43561;50.090;18.522;2024-03-02T10:00:30;121.97;;;73.60;;
57718;SDS011;43561;50.090;18.522;2024-03-02T10:10:38;129.63;;;75.47;;
57718;SDS011;43561;50.090;18.522;2024-03-02T10:20:41;102.05;;;58.67;;
57718;SDS011;43561;50.090;18.522;2024-03-02T10:30:50;79.70;;;46.63;;
57718;SDS011;43561;50.090;18.522;2024-03-02T10:40:52;89.38;;;52.50;;
57718;SDS011;43561;50.090;18.522;2024-03-02T10:50:54;69.57;;;41.47;;
57718;SDS011;43561;50.090;18.522;2024-03-02T11:00:56;109.88;;;60.70;;
57718;SDS011;43561;50.090;18.522;2024-03-02T11:11:06;97.90;;;56.42;;
57718;SDS011;43561;50.090;18.522;2024-03-02T11:21:14;81.93;;;46.63;;
57718;SDS011;43561;50.090;18.522;2024-03-02T11:31:16;64.20;;;45.85;;
57718;SDS011;43561;50.090;18.522;2024-03-02T11:41:18;60.05;;;36.40;;
57718;SDS011;43561;50.090;18.522;2024-03-02T11:51:20;66.28;;;38.40;;
57718;SDS011;43561;50.090;18.522;2024-03-02T12:01:24;59.42;;;38.35;;
57718;SDS011;43561;50.090;18.522;2024-03-02T12:11:26;50.78;;;32.08;;
57718;SDS011;43561;50.090;18.522;2024-03-02T12:21:28;40.13;;;30.40;;
57718;SDS011;43561;50.090;18.522;2024-03-02T12:31:30;35.15;;;21.13;;
57718;SDS011;43561;50.090;18.522;2024-03-02T12:41:32;31.25;;;22.25;;
57718;SDS011;43561;50.090;18.522;2024-03-02T12:51:35;33.28;;;26.35;;
57718;SDS011;43561;50.090;18.522;2024-03-02T13:01:37;26.00;;;19.60;;
57718;SDS011;43561;50.090;18.522;2024-03-02T13:11:39;24.27;;;18.00;;
57718;SDS011;43561;50.090;18.522;2024-03-02T13:21:41;13.05;;;11.73;;
57718;SDS011;43561;50.090;18.522;2024-03-02T13:31:43;19.98;;;11.40;;
57718;SDS011;43561;50.090;18.522;2024-03-02T13:41:46;23.27;;;15.05;;
57718;SDS011;43561;50.090;18.522;2024-03-02T13:51:48;37.00;;;28.05;;
57718;SDS011;43561;50.090;18.522;2024-03-02T14:01:50;29.65;;;21.13;;
57718;SDS011;43561;50.090;18.522;2024-03-02T14:11:53;22.67;;;17.40;;
57718;SDS011;43561;50.090;18.522;2024-03-02T14:21:55;24.35;;;16.70;;
57718;SDS011;43561;50.090;18.522;2024-03-02T14:31:57;22.17;;;13.68;;
57718;SDS011;43561;50.090;18.522;2024-03-02T14:42:00;24.50;;;15.57;;
57718;SDS011;43561;50.090;18.522;2024-03-02T14:52:02;30.55;;;17.58;;
57718;SDS011;43561;50.090;18.522;2024-03-02T15:02:04;23.23;;;16.65;;
57718;SDS011;43561;50.090;18.522;2024-03-02T15:12:08;28.77;;;19.13;;
57718;SDS011;43561;50.090;18.522;2024-03-02T15:22:10;32.03;;;22.83;;
57718;SDS011;43561;50.090;18.522;2024-03-02T15:32:13;37.13;;;26.13;;
57718;SDS011;43561;50.090;18.522;2024-03-02T15:42:15;38.47;;;27.17;;
57718;SDS011;43561;50.090;18.522;2024-03-02T15:52:17;46.88;;;29.35;;
57718;SDS011;43561;50.090;18.522;2024-03-02T16:02:20;67.00;;;41.47;;
57718;SDS011;43561;50.090;18.522;2024-03-02T16:12:22;67.20;;;43.13;;
57718;SDS011;43561;50.090;18.522;2024-03-02T16:22:24;65.30;;;39.25;;
57718;SDS011;43561;50.090;18.522;2024-03-02T16:32:26;63.20;;;40.58;;
57718;SDS011;43561;50.090;18.522;2024-03-02T16:42:28;68.60;;;44.53;;
57718;SDS011;43561;50.090;18.522;2024-03-02T16:52:30;101.82;;;59.15;;
57718;SDS011;43561;50.090;18.522;2024-03-02T17:02:32;103.40;;;61.30;;
57718;SDS011;43561;50.090;18.522;2024-03-02T17:12:36;87.15;;;59.70;;
57718;SDS011;43561;50.090;18.522;2024-03-02T17:22:38;105.28;;;60.33;;
57718;SDS011;43561;50.090;18.522;2024-03-02T17:32:41;91.82;;;58.95;;
57718;SDS011;43561;50.090;18.522;2024-03-02T17:42:43;97.80;;;57.30;;
57718;SDS011;43561;50.090;18.522;2024-03-02T17:52:45;95.63;;;61.15;;
57718;SDS011;43561;50.090;18.522;2024-03-02T18:02:47;113.88;;;62.47;;
57718;SDS011;43561;50.090;18.522;2024-03-02T18:12:49;110.55;;;64.75;;
57718;SDS011;43561;50.090;18.522;2024-03-02T18:22:51;137.20;;;71.60;;
57718;SDS011;43561;50.090;18.522;2024-03-02T18:32:53;119.80;;;65.28;;
57718;SDS011;43561;50.090;18.522;2024-03-02T18:42:55;123.00;;;69.60;;
57718;SDS011;43561;50.090;18.522;2024-03-02T18:52:57;112.78;;;74.18;;
57718;SDS011;43561;50.090;18.522;2024-03-02T19:02:58;119.93;;;70.35;;
57718;SDS011;43561;50.090;18.522;2024-03-02T19:13:00;129.52;;;72.50;;
57718;SDS011;43561;50.090;18.522;2024-03-02T19:23:02;126.13;;;70.00;;
57718;SDS011;43561;50.090;18.522;2024-03-02T19:33:04;120.60;;;67.88;;
57718;SDS011;43561;50.090;18.522;2024-03-02T19:43:07;152.23;;;82.03;;
57718;SDS011;43561;50.090;18.522;2024-03-02T19:53:10;110.60;;;64.75;;
57718;SDS011;43561;50.090;18.522;2024-03-02T20:03:12;109.75;;;62.05;;
57718;SDS011;43561;50.090;18.522;2024-03-02T20:13:14;96.90;;;56.08;;
57718;SDS011;43561;50.090;18.522;2024-03-02T20:23:16;107.32;;;59.47;;
57718;SDS011;43561;50.090;18.522;2024-03-02T20:33:18;96.78;;;56.85;;
57718;SDS011;43561;50.090;18.522;2024-03-02T20:43:20;110.63;;;63.70;;
57718;SDS011;43561;50.090;18.522;2024-03-02T20:53:23;108.25;;;63.85;;
57718;SDS011;43561;50.090;18.522;2024-03-02T21:03:24;123.25;;;67.50;;
57718;SDS011;43561;50.090;18.522;2024-03-02T21:13:26;131.55;;;68.57;;
57718;SDS011;43561;50.090;18.522;2024-03-02T21:23:28;138.27;;;73.43;;
57718;SDS011;43561;50.090;18.522;2024-03-02T21:33:30;128.55;;;79.78;;
57718;SDS011;43561;50.090;18.522;2024-03-02T21:43:32;135.18;;;76.68;;
57718;SDS011;43561;50.090;18.522;2024-03-02T21:53:35;135.63;;;75.47;;
57718;SDS011;43561;50.090;18.522;2024-03-02T22:03:37;140.73;;;80.28;;
57718;SDS011;43561;50.090;18.522;2024-03-02T22:13:39;151.48;;;85.32;;
57718;SDS011;43561;50.090;18.522;2024-03-02T22:23:41;146.98;;;87.18;;
57718;SDS011;43561;50.090;18.522;2024-03-02T22:33:43;140.30;;;76.28;;
57718;SDS011;43561;50.090;18.522;2024-03-02T22:43:45;147.23;;;91.15;;
57718;SDS011;43561;50.090;18.522;2024-03-02T22:53:47;146.93;;;87.15;;
57718;SDS011;43561;50.090;18.522;2024-03-02T23:03:50;144.15;;;78.70;;
57718;SDS011;43561;50.090;18.522;2024-03-02T23:13:52;157.55;;;90.97;;
57718;SDS011;43561;50.090;18.522;2024-03-02T23:23:56;155.65;;;89.68;;
57718;SDS011;43561;50.090;18.522;2024-03-02T23:33:58;132.57;;;82.28;;
57718;SDS011;43561;50.090;18.522;2024-03-02T23:44:00;145.50;;;69.85;;
57718;SDS011;43561;50.090;18.522;2024-03-02T23:54:02;129.05;;;73.28;;
